Holden, Utah
Current Conditions -  °F | °C
As of 5:35 PM on Wednesday 22 Oct 2014 (Local Time) from KDTA Reporting Station
Clear Clear  
Wind Chill: 64°   Ceiling: Unl
Heat Index: 64°   Visibility: 10mi
Dew Point: 29°   Wind: 0mph
Humidity: 27%   Direction: NA
Pressure: 30.15"   Gusts: NA
Location:  39.1°N, 112.27°W
Report Text: KDTA 222335Z AUTO 00000KT 10SM CLR 18/M02 A3015 RMK AO1 T01751016
Loading
Personal Weather Stations






























Interactive Weather Map
Tropical Storm Tracking
New forecast layout! Learn more

10-Day Weather Forecast

Advertisements
Track Severe Weather on mobile